Terminal Aerodrome Forecast
Issued by NWS

Home | Current Version | Previous Version | Text Only | Print | Product List | Glossary On
Versions: 1 2 3 4 5 6 7 8 9 10 11 12 13
000
FTUS42 TJSJ 272346
TAFJPS
TAF
TJPS 272346Z 2800/2824 06010G15KT P6SM SCT025 BKN060
     FM280400 06020G30KT 5SM +SHRA VCTS SCT025CB BKN040
      TEMPO 2804/2808 VRB25G45KT 3SM +TSRA BKN020CB OVC050
     FM281500 13015G25KT P6SM VCSH SCT025 BKN040
     FM282200 17010G15KT P6SM VCTS SCT025 BKN060CB
      AMD NOT SKED TIL 280300=

USA.gov is the U.S. government's official web portal to all federal, state and local government web resources and services.